createdAt,value
2018-12-19T00:00:51.886Z,1006.88
2018-12-19T00:02:00.558Z,1006.82
2018-12-19T00:03:09.226Z,1006.78
2018-12-19T00:04:17.903Z,1006.8
2018-12-19T00:05:26.574Z,1006.75
2018-12-19T00:06:35.229Z,1006.74
2018-12-19T00:07:44.152Z,1006.66
2018-12-19T00:08:53.082Z,1006.58
2018-12-19T00:10:08.102Z,1006.55
2018-12-19T00:11:16.761Z,1006.57
2018-12-19T00:12:25.427Z,1006.55
2018-12-19T00:13:34.101Z,1006.48
2018-12-19T00:14:42.781Z,1006.49
2018-12-19T00:15:51.437Z,1006.5
2018-12-19T00:17:00.103Z,1006.43
2018-12-19T00:18:08.772Z,1006.38
2018-12-19T00:19:17.444Z,1006.37
2018-12-19T00:20:26.106Z,1006.3
2018-12-19T00:21:34.768Z,1006.3
2018-12-19T00:22:43.431Z,1006.28
2018-12-19T00:23:52.097Z,1006.23
2018-12-19T00:25:00.771Z,1006.2
2018-12-19T00:26:09.433Z,1006.13
2018-12-19T00:27:18.100Z,1006.15
2018-12-19T00:28:26.762Z,1006.14
2018-12-19T00:29:35.442Z,1006.17
2018-12-19T00:30:44.121Z,1006.15
2018-12-19T00:31:52.794Z,1006.14
2018-12-19T00:33:01.458Z,1006.19
2018-12-19T00:34:10.140Z,1006.18
2018-12-19T00:35:18.804Z,1006.19
2018-12-19T00:36:27.734Z,1006.17
2018-12-19T00:37:36.399Z,1006.16
2018-12-19T00:38:45.073Z,1006.13
2018-12-19T00:39:53.998Z,1006.08
2018-12-19T00:41:02.670Z,1006.1
2018-12-19T00:42:11.339Z,1006.07
2018-12-19T00:43:20.001Z,1005.99
2018-12-19T00:44:28.663Z,1005.98
2018-12-19T00:45:37.332Z,1005.95
2018-12-19T00:46:46.270Z,1005.95
2018-12-19T00:47:54.937Z,1005.97
2018-12-19T00:49:03.616Z,1005.95
2018-12-19T00:50:12.546Z,1005.95
2018-12-19T00:51:21.222Z,1006
2018-12-19T00:52:29.890Z,1005.96
2018-12-19T00:53:38.561Z,1006
2018-12-19T00:54:47.225Z,1005.98
2018-12-19T00:55:55.899Z,1006.02
2018-12-19T00:57:04.564Z,1006.07
2018-12-19T00:58:13.260Z,1006.07
2018-12-19T00:59:21.925Z,1006.12
2018-12-19T01:00:30.585Z,1006.16
2018-12-19T01:01:39.256Z,1006.15
2018-12-19T01:02:47.928Z,1006.18
2018-12-19T01:03:56.846Z,1006.21
2018-12-19T01:05:05.776Z,1006.2
2018-12-19T01:06:14.447Z,1006.19
2018-12-19T01:07:23.123Z,1006.19
2018-12-19T01:08:31.786Z,1006.26
2018-12-19T01:09:40.445Z,1006.2
2018-12-19T01:10:49.124Z,1006.2
2018-12-19T01:11:57.790Z,1006.24
2018-12-19T01:13:06.464Z,1006.27
2018-12-19T01:14:15.123Z,1006.21
2018-12-19T01:15:23.791Z,1006.1
2018-12-19T01:16:32.462Z,1006.1
2018-12-19T01:17:41.129Z,1006.05
2018-12-19T01:18:49.796Z,1006.07
2018-12-19T01:19:58.458Z,1006.05
2018-12-19T01:21:07.132Z,1006.02
2018-12-19T01:22:15.796Z,1005.99
2018-12-19T01:23:24.471Z,1005.97
2018-12-19T01:24:33.135Z,1005.94
2018-12-19T01:25:41.810Z,1005.96
2018-12-19T01:26:50.479Z,1005.96
2018-12-19T01:27:59.155Z,1005.94
2018-12-19T01:29:07.822Z,1005.92
2018-12-19T01:30:16.503Z,1005.98
2018-12-19T01:31:25.422Z,1005.9
2018-12-19T01:32:34.092Z,1005.83
2018-12-19T01:33:42.763Z,1005.84
2018-12-19T01:34:51.727Z,1005.79
2018-12-19T01:36:00.397Z,1005.73
2018-12-19T01:37:09.061Z,1005.73
2018-12-19T01:38:17.798Z,1005.79
2018-12-19T01:39:26.463Z,1005.76
2018-12-19T01:40:35.130Z,1005.76
2018-12-19T01:41:43.841Z,1005.68
2018-12-19T01:42:52.784Z,1005.61
2018-12-19T01:44:01.451Z,1005.62
2018-12-19T01:45:10.379Z,1005.64
2018-12-19T01:46:19.040Z,1005.58
2018-12-19T01:47:27.712Z,1005.63
2018-12-19T01:48:36.381Z,1005.71
2018-12-19T01:49:45.050Z,1005.69
2018-12-19T01:50:53.717Z,1005.67
2018-12-19T01:52:02.389Z,1005.63
2018-12-19T01:53:11.059Z,1005.67
2018-12-19T01:54:19.987Z,1005.68
2018-12-19T01:55:29.162Z,1005.68
2018-12-19T01:56:37.821Z,1005.6
2018-12-19T01:57:46.489Z,1005.56
2018-12-19T01:58:55.151Z,1005.54
2018-12-19T02:00:03.819Z,1005.52
2018-12-19T02:01:12.487Z,1005.51
2018-12-19T02:02:21.153Z,1005.5
2018-12-19T02:03:29.821Z,1005.54
2018-12-19T02:04:38.746Z,1005.55
2018-12-19T02:05:47.408Z,1005.57
2018-12-19T02:06:56.075Z,1005.61
2018-12-19T02:08:04.740Z,1005.59
2018-12-19T02:09:13.413Z,1005.52
2018-12-19T02:10:22.085Z,1005.51
2018-12-19T02:11:30.748Z,1005.47
2018-12-19T02:12:39.411Z,1005.46
2018-12-19T02:13:48.077Z,1005.56
2018-12-19T02:14:56.749Z,1005.58
2018-12-19T02:16:05.417Z,1005.55
2018-12-19T02:17:14.080Z,1005.52
2018-12-19T02:18:22.741Z,1005.51
2018-12-19T02:19:31.411Z,1005.42
2018-12-19T02:20:40.075Z,1005.44
2018-12-19T02:21:48.738Z,1005.52
2018-12-19T02:22:57.410Z,1005.48
2018-12-19T02:24:06.086Z,1005.52
2018-12-19T02:25:14.759Z,1005.51
2018-12-19T02:26:23.680Z,1005.58
2018-12-19T02:27:32.605Z,1005.55
2018-12-19T02:28:41.278Z,1005.56
2018-12-19T02:29:50.200Z,1005.54
2018-12-19T02:30:58.869Z,1005.43
2018-12-19T02:32:07.589Z,1005.5
2018-12-19T02:33:16.255Z,1005.56
2018-12-19T02:34:24.926Z,1005.67
2018-12-19T02:35:33.585Z,1005.65
2018-12-19T02:36:42.264Z,1005.66
2018-12-19T02:37:51.184Z,1005.68
2018-12-19T02:38:59.863Z,1005.71
2018-12-19T02:40:08.540Z,1005.69
2018-12-19T02:41:17.485Z,1005.73
2018-12-19T02:42:26.152Z,1005.81
2018-12-19T02:43:34.837Z,1005.87
2018-12-19T02:44:43.501Z,1005.88
2018-12-19T02:45:52.188Z,1005.85
2018-12-19T02:47:01.111Z,1005.86
2018-12-19T02:48:09.842Z,1005.83
2018-12-19T02:49:18.524Z,1005.83
2018-12-19T02:50:27.456Z,1005.76
2018-12-19T02:51:36.398Z,1005.79
2018-12-19T02:52:45.054Z,1005.8
2018-12-19T02:53:53.724Z,1005.81
2018-12-19T02:55:02.445Z,1005.78
2018-12-19T02:56:11.119Z,1005.8
2018-12-19T02:57:19.785Z,1005.76
2018-12-19T02:58:28.460Z,1005.76
2018-12-19T02:59:37.918Z,1005.76
2018-12-19T03:00:46.606Z,1005.78
2018-12-19T03:01:55.281Z,1005.75
2018-12-19T03:03:03.953Z,1005.75
2018-12-19T03:04:12.627Z,1005.73
2018-12-19T03:05:21.557Z,1005.71
2018-12-19T03:06:30.229Z,1005.7
2018-12-19T03:07:38.897Z,1005.67
2018-12-19T03:08:47.570Z,1005.67
2018-12-19T03:09:56.233Z,1005.64
2018-12-19T03:11:04.921Z,1005.67
2018-12-19T03:12:13.582Z,1005.68
2018-12-19T03:13:22.262Z,1005.7
2018-12-19T03:14:30.919Z,1005.74
2018-12-19T03:15:39.592Z,1005.75
2018-12-19T03:16:48.264Z,1005.8
2018-12-19T03:17:56.947Z,1005.79
2018-12-19T03:19:05.652Z,1005.79
2018-12-19T03:20:14.573Z,1005.79
2018-12-19T03:21:23.241Z,1005.76
2018-12-19T03:22:32.179Z,1005.76
2018-12-19T03:23:40.851Z,1005.76
2018-12-19T03:24:49.768Z,1005.72
2018-12-19T03:25:58.690Z,1005.72
2018-12-19T03:27:07.361Z,1005.76
2018-12-19T03:28:16.304Z,1005.73
2018-12-19T03:29:24.991Z,1005.66
2018-12-19T03:30:33.662Z,1005.69
2018-12-19T03:31:42.428Z,1005.65
2018-12-19T03:32:51.629Z,1005.65
2018-12-19T03:34:00.608Z,1005.59
2018-12-19T03:35:09.280Z,1005.68
2018-12-19T03:36:17.962Z,1005.67
2018-12-19T03:37:26.629Z,1005.61
2018-12-19T03:38:35.565Z,1005.66
2018-12-19T03:39:50.185Z,1005.66
2018-12-19T03:40:59.301Z,1005.69
2018-12-19T03:42:08.562Z,1005.78
2018-12-19T03:43:17.238Z,1005.71
2018-12-19T03:44:25.940Z,1005.79
2018-12-19T03:45:34.864Z,1005.82
2018-12-19T03:46:44.054Z,1005.76
2018-12-19T03:47:52.722Z,1005.71
2018-12-19T03:49:01.436Z,1005.78
2018-12-19T03:50:10.100Z,1005.73
2018-12-19T03:51:18.776Z,1005.72
2018-12-19T03:52:27.436Z,1005.58
2018-12-19T03:53:36.186Z,1005.61
2018-12-19T03:54:44.852Z,1005.56
2018-12-19T03:55:53.531Z,1005.49
2018-12-19T03:57:02.197Z,1005.5
2018-12-19T03:58:10.865Z,1005.5
2018-12-19T03:59:19.533Z,1005.47
2018-12-19T04:00:28.457Z,1005.43
2018-12-19T04:01:37.131Z,1005.37
2018-12-19T04:02:45.808Z,1005.41
2018-12-19T04:03:54.486Z,1005.37
2018-12-19T04:05:03.144Z,1005.36
2018-12-19T04:06:11.823Z,1005.37
2018-12-19T04:07:20.789Z,1005.31
2018-12-19T04:08:29.499Z,1005.31
2018-12-19T04:09:38.323Z,1005.26
2018-12-19T04:10:47.465Z,1005.29
2018-12-19T04:11:56.565Z,1005.26
2018-12-19T04:13:05.358Z,1005.22
2018-12-19T04:14:14.104Z,1005.17
2018-12-19T04:15:22.942Z,1005.21
2018-12-19T04:16:31.957Z,1005.17
2018-12-19T04:17:40.636Z,1005.11
2018-12-19T04:18:49.319Z,1005.13
2018-12-19T04:19:57.985Z,1005.13
2018-12-19T04:21:06.653Z,1005.14
2018-12-19T04:22:15.588Z,1005.17
2018-12-19T04:23:24.278Z,1005.14
2018-12-19T04:24:32.947Z,1005.16
2018-12-19T04:25:41.621Z,1005.13
2018-12-19T04:26:50.291Z,1005.07
2018-12-19T04:27:58.976Z,1005.04
2018-12-19T04:29:07.994Z,1005.03
2018-12-19T04:30:17.172Z,1005.01
2018-12-19T04:31:26.108Z,1004.94
2018-12-19T04:32:34.792Z,1004.94
2018-12-19T04:33:43.490Z,1004.89
2018-12-19T04:34:52.164Z,1004.83
2018-12-19T04:36:00.833Z,1004.87
2018-12-19T04:37:09.511Z,1004.9
2018-12-19T04:38:18.188Z,1004.85
2018-12-19T04:39:26.862Z,1004.8
2018-12-19T04:40:35.819Z,1004.79
2018-12-19T04:41:44.485Z,1004.83
2018-12-19T04:42:53.449Z,1004.82
2018-12-19T04:44:02.141Z,1004.79
2018-12-19T04:45:10.934Z,1004.81
2018-12-19T04:46:19.603Z,1004.77
2018-12-19T04:47:28.277Z,1004.73
2018-12-19T04:48:36.948Z,1004.72
2018-12-19T04:49:45.886Z,1004.67
2018-12-19T04:50:54.557Z,1004.74
2018-12-19T04:52:03.231Z,1004.76
2018-12-19T04:53:11.903Z,1004.74
2018-12-19T04:54:21.279Z,1004.74
2018-12-19T04:55:29.959Z,1004.81
2018-12-19T04:56:38.662Z,1004.83
2018-12-19T04:57:47.348Z,1004.87
2018-12-19T04:58:56.281Z,1004.87
2018-12-19T05:00:04.961Z,1004.89
2018-12-19T05:01:13.638Z,1004.9
2018-12-19T05:02:22.320Z,1004.87
2018-12-19T05:03:31.237Z,1004.87
2018-12-19T05:04:40.169Z,1004.89
2018-12-19T05:05:49.094Z,1004.93
2018-12-19T05:06:57.762Z,1004.86
2018-12-19T05:08:06.427Z,1004.9
2018-12-19T05:09:15.096Z,1004.85
2018-12-19T05:10:23.777Z,1004.85
2018-12-19T05:11:32.454Z,1004.87
2018-12-19T05:12:41.378Z,1004.93
2018-12-19T05:13:50.051Z,1005.01
2018-12-19T05:14:58.735Z,1005.02
2018-12-19T05:16:07.415Z,1004.99
2018-12-19T05:17:16.348Z,1005.05
2018-12-19T05:18:25.018Z,1005.06
2018-12-19T05:19:33.690Z,1005.05
2018-12-19T05:20:42.631Z,1005.05
2018-12-19T05:21:51.305Z,1005.03
2018-12-19T05:22:59.962Z,1005.12
2018-12-19T05:24:08.883Z,1005.15
2018-12-19T05:25:18.182Z,1005.11
2018-12-19T05:26:27.115Z,1005.11
2018-12-19T05:27:36.028Z,1005.16
2018-12-19T05:28:44.699Z,1005.17
2018-12-19T05:29:53.365Z,1005.19
2018-12-19T05:31:02.047Z,1005.2
2018-12-19T05:32:10.720Z,1005.21
2018-12-19T05:33:19.387Z,1005.23
2018-12-19T05:34:28.306Z,1005.3
2018-12-19T05:35:36.972Z,1005.28
2018-12-19T05:36:45.652Z,1005.3
2018-12-19T05:37:54.317Z,1005.29
2018-12-19T05:39:02.989Z,1005.25
2018-12-19T05:40:11.651Z,1005.25
2018-12-19T05:41:25.858Z,1005.25
2018-12-19T05:42:34.775Z,1005.18
2018-12-19T05:43:43.446Z,1005.17
2018-12-19T05:44:52.104Z,1005.19
2018-12-19T05:46:00.781Z,1005.24
2018-12-19T05:47:09.450Z,1005.28
2018-12-19T05:48:18.123Z,1005.34
2018-12-19T05:49:26.779Z,1005.34
2018-12-19T05:50:35.451Z,1005.29
2018-12-19T05:51:44.123Z,1005.31
2018-12-19T05:52:52.795Z,1005.3
2018-12-19T05:54:01.530Z,1005.38
2018-12-19T05:55:10.191Z,1005.33
2018-12-19T05:56:18.868Z,1005.41
2018-12-19T05:57:27.531Z,1005.39
2018-12-19T05:58:36.226Z,1005.4
2018-12-19T05:59:44.880Z,1005.4
2018-12-19T06:00:53.553Z,1005.38
2018-12-19T06:02:02.207Z,1005.37
2018-12-19T06:03:10.882Z,1005.38
2018-12-19T06:04:19.553Z,1005.41
2018-12-19T06:05:28.227Z,1005.39
2018-12-19T06:06:36.892Z,1005.4
2018-12-19T06:07:45.571Z,1005.38
2018-12-19T06:08:54.245Z,1005.42
2018-12-19T06:10:02.913Z,1005.36
2018-12-19T06:11:11.584Z,1005.41
2018-12-19T06:12:20.251Z,1005.41
2018-12-19T06:13:28.929Z,1005.43
2018-12-19T06:14:37.757Z,1005.39
2018-12-19T06:15:46.507Z,1005.39
2018-12-19T06:16:55.350Z,1005.47
2018-12-19T06:18:04.039Z,1005.42
2018-12-19T06:19:12.713Z,1005.43
2018-12-19T06:20:21.382Z,1005.45
2018-12-19T06:21:30.038Z,1005.36
2018-12-19T06:22:38.880Z,1005.37
2018-12-19T06:23:47.545Z,1005.38
2018-12-19T06:24:56.211Z,1005.49
2018-12-19T06:26:05.442Z,1005.43
2018-12-19T06:27:14.380Z,1005.42
2018-12-19T06:28:23.203Z,1005.41
2018-12-19T06:29:31.955Z,1005.45
2018-12-19T06:30:40.877Z,1005.44
2018-12-19T06:31:49.544Z,1005.46
2018-12-19T06:32:58.226Z,1005.52
2018-12-19T06:34:06.903Z,1005.42
2018-12-19T06:35:15.582Z,1005.45
2018-12-19T06:36:24.242Z,1005.45
2018-12-19T06:37:32.918Z,1005.43
2018-12-19T06:38:41.587Z,1005.4
2018-12-19T06:39:50.266Z,1005.44
2018-12-19T06:40:58.933Z,1005.5
2018-12-19T06:42:07.855Z,1005.46
2018-12-19T06:43:16.516Z,1005.36
2018-12-19T06:44:25.193Z,1005.38
2018-12-19T06:45:33.876Z,1005.46
2018-12-19T06:46:42.567Z,1005.46
2018-12-19T06:47:51.237Z,1005.56
2018-12-19T06:48:59.898Z,1005.57
2018-12-19T06:50:08.635Z,1005.52
2018-12-19T06:51:18.919Z,1005.49
2018-12-19T06:52:27.914Z,1005.48
2018-12-19T06:53:36.577Z,1005.55
2018-12-19T06:54:45.254Z,1005.59
2018-12-19T06:55:54.187Z,1005.52
2018-12-19T06:57:02.852Z,1005.6
2018-12-19T06:58:12.009Z,1005.64
2018-12-19T06:59:20.688Z,1005.65
2018-12-19T07:00:29.357Z,1005.64
2018-12-19T07:01:38.050Z,1005.61
2018-12-19T07:02:46.961Z,1005.64
2018-12-19T07:03:55.630Z,1005.63
2018-12-19T07:05:04.305Z,1005.62
2018-12-19T07:06:12.979Z,1005.61
2018-12-19T07:07:21.653Z,1005.62
2018-12-19T07:08:30.324Z,1005.6
2018-12-19T07:09:38.993Z,1005.62
2018-12-19T07:10:47.688Z,1005.64
2018-12-19T07:11:56.365Z,1005.64
2018-12-19T07:13:05.276Z,1005.72
2018-12-19T07:14:14.204Z,1005.66
2018-12-19T07:15:22.877Z,1005.64
2018-12-19T07:16:31.555Z,1005.68
2018-12-19T07:17:45.896Z,1005.66
2018-12-19T07:18:54.567Z,1005.7
2018-12-19T07:20:03.232Z,1005.69
2018-12-19T07:21:11.913Z,1005.71
2018-12-19T07:22:20.575Z,1005.74
2018-12-19T07:23:29.242Z,1005.78
2018-12-19T07:24:37.908Z,1005.78
2018-12-19T07:25:46.858Z,1005.83
2018-12-19T07:26:55.530Z,1005.8
2018-12-19T07:28:04.201Z,1005.87
2018-12-19T07:29:13.123Z,1005.79
2018-12-19T07:30:21.798Z,1005.87
2018-12-19T07:31:30.478Z,1005.89
2018-12-19T07:32:39.150Z,1005.87
2018-12-19T07:33:47.818Z,1005.84
2018-12-19T07:34:56.491Z,1005.83
2018-12-19T07:36:05.153Z,1005.86
2018-12-19T07:37:14.084Z,1005.91
2018-12-19T07:38:22.748Z,1005.86
2018-12-19T07:39:31.422Z,1005.89
2018-12-19T07:40:45.439Z,1005.94
2018-12-19T07:41:54.318Z,1005.93
2018-12-19T07:43:03.119Z,1005.94
2018-12-19T07:44:12.045Z,1005.93
2018-12-19T07:45:20.719Z,1005.98
2018-12-19T07:46:29.394Z,1005.97
2018-12-19T07:47:38.079Z,1006
2018-12-19T07:48:46.739Z,1006.03
2018-12-19T07:49:55.413Z,1006.05
2018-12-19T07:51:04.335Z,1005.99
2018-12-19T07:52:12.999Z,1005.98
2018-12-19T07:53:21.659Z,1005.99
2018-12-19T07:54:30.335Z,1005.89
2018-12-19T07:55:39.012Z,1005.91
2018-12-19T07:56:47.937Z,1006.02
2018-12-19T07:57:56.598Z,1005.97
2018-12-19T07:59:05.523Z,1006.04
2018-12-19T08:00:14.191Z,1005.94
2018-12-19T08:01:27.695Z,1006.03
2018-12-19T08:02:36.369Z,1006.06
2018-12-19T08:03:45.292Z,1006.08
2018-12-19T08:04:53.965Z,1006.06
2018-12-19T08:06:02.883Z,1006.07
2018-12-19T08:07:11.560Z,1006.06
2018-12-19T08:08:20.225Z,1006.1
2018-12-19T08:09:28.921Z,1006.15
2018-12-19T08:10:37.856Z,1006.12
2018-12-19T08:11:52.403Z,1006.11
2018-12-19T08:13:01.066Z,1006.17
2018-12-19T08:14:09.746Z,1006.2
2018-12-19T08:15:18.417Z,1006.18
2018-12-19T08:16:27.092Z,1006.21
2018-12-19T08:17:35.761Z,1006.21
2018-12-19T08:18:44.429Z,1006.2
2018-12-19T08:19:53.096Z,1006.22
2018-12-19T08:21:01.769Z,1006.25
2018-12-19T08:22:10.702Z,1006.25
2018-12-19T08:23:19.368Z,1006.32
2018-12-19T08:24:28.051Z,1006.32
2018-12-19T08:25:36.713Z,1006.3
2018-12-19T08:26:45.392Z,1006.3
2018-12-19T08:27:54.074Z,1006.29
2018-12-19T08:29:02.754Z,1006.29
2018-12-19T08:30:11.458Z,1006.35
2018-12-19T08:31:20.440Z,1006.38
2018-12-19T08:32:29.368Z,1006.39
2018-12-19T08:33:38.037Z,1006.41
2018-12-19T08:34:46.700Z,1006.39
2018-12-19T08:35:55.371Z,1006.4
2018-12-19T08:37:04.312Z,1006.41
2018-12-19T08:38:13.106Z,1006.42
2018-12-19T08:39:22.185Z,1006.44
2018-12-19T08:40:31.114Z,1006.49
2018-12-19T08:41:39.979Z,1006.5
2018-12-19T08:42:48.737Z,1006.52
2018-12-19T08:43:57.460Z,1006.53
2018-12-19T08:45:06.187Z,1006.52
2018-12-19T08:46:14.879Z,1006.51
2018-12-19T08:47:23.697Z,1006.53
2018-12-19T08:48:32.457Z,1006.52
2018-12-19T08:49:41.454Z,1006.56
2018-12-19T08:50:50.128Z,1006.53
2018-12-19T08:51:58.910Z,1006.58
2018-12-19T08:53:07.840Z,1006.56
2018-12-19T08:54:16.506Z,1006.62
2018-12-19T08:55:25.167Z,1006.61
2018-12-19T08:56:34.100Z,1006.64
2018-12-19T08:57:42.766Z,1006.65
2018-12-19T08:58:51.445Z,1006.64
2018-12-19T09:00:00.126Z,1006.64
2018-12-19T09:01:08.804Z,1006.68
2018-12-19T09:02:17.461Z,1006.66
2018-12-19T09:03:26.147Z,1006.67
2018-12-19T09:04:34.820Z,1006.66
2018-12-19T09:05:43.491Z,1006.68
2018-12-19T09:06:52.157Z,1006.72
2018-12-19T09:08:00.832Z,1006.72
2018-12-19T09:09:09.515Z,1006.69
2018-12-19T09:10:18.182Z,1006.72
2018-12-19T09:11:26.848Z,1006.74
2018-12-19T09:12:35.774Z,1006.75
2018-12-19T09:13:44.446Z,1006.72
2018-12-19T09:14:53.124Z,1006.77
2018-12-19T09:16:02.849Z,1006.74
2018-12-19T09:17:11.767Z,1006.78
2018-12-19T09:18:20.442Z,1006.77
2018-12-19T09:19:29.105Z,1006.74
2018-12-19T09:20:37.784Z,1006.77
2018-12-19T09:21:46.449Z,1006.75
2018-12-19T09:22:55.371Z,1006.84
2018-12-19T09:24:04.047Z,1006.8
2018-12-19T09:25:12.995Z,1006.84
2018-12-19T09:26:21.671Z,1006.85
2018-12-19T09:27:30.344Z,1006.88
2018-12-19T09:28:39.075Z,1006.87
2018-12-19T09:29:47.760Z,1006.91
2018-12-19T09:30:56.432Z,1006.95
2018-12-19T09:32:05.103Z,1006.95
2018-12-19T09:33:13.849Z,1007.01
2018-12-19T09:34:29.782Z,1006.97
2018-12-19T09:35:38.451Z,1006.97
2018-12-19T09:36:47.122Z,1006.93
2018-12-19T09:37:56.049Z,1006.96
2018-12-19T09:39:04.741Z,1006.93
2018-12-19T09:40:13.669Z,1006.99
2018-12-19T09:41:22.334Z,1007.05
2018-12-19T09:42:30.998Z,1007.06
2018-12-19T09:43:39.941Z,1007.05
2018-12-19T09:44:48.612Z,1007.04
2018-12-19T09:45:57.289Z,1007.05
2018-12-19T09:47:06.209Z,1007.03
2018-12-19T09:48:14.882Z,1007.01
2018-12-19T09:49:23.563Z,1007.02
2018-12-19T09:50:32.232Z,1007.02
2018-12-19T09:51:40.895Z,1007.03
2018-12-19T09:52:49.565Z,1007
2018-12-19T09:53:58.264Z,1007.05
2018-12-19T09:55:06.930Z,1007.03
2018-12-19T09:56:15.633Z,1007.02
2018-12-19T09:57:24.551Z,1007
2018-12-19T09:58:33.233Z,1007.03
2018-12-19T09:59:41.914Z,1007.03
2018-12-19T10:00:50.593Z,1007.02
2018-12-19T10:01:59.840Z,1007.02
2018-12-19T10:03:08.533Z,1007.02
2018-12-19T10:04:17.200Z,1007.05
2018-12-19T10:05:25.875Z,1006.99
2018-12-19T10:06:34.540Z,1007
2018-12-19T10:07:43.213Z,1006.97
2018-12-19T10:08:51.888Z,1006.93
2018-12-19T10:10:00.566Z,1006.9
2018-12-19T10:11:09.245Z,1006.89
2018-12-19T10:12:23.184Z,1006.89
2018-12-19T10:13:31.855Z,1006.86
2018-12-19T10:14:40.526Z,1006.85
2018-12-19T10:15:49.464Z,1006.85
2018-12-19T10:16:58.125Z,1006.8
2018-12-19T10:18:06.789Z,1006.8
2018-12-19T10:19:15.460Z,1006.82
2018-12-19T10:20:24.130Z,1006.81
2018-12-19T10:21:32.792Z,1006.81
2018-12-19T10:22:41.464Z,1006.79
2018-12-19T10:23:50.140Z,1006.84
2018-12-19T10:24:58.816Z,1006.84
2018-12-19T10:26:07.483Z,1006.86
2018-12-19T10:27:16.657Z,1006.94
2018-12-19T10:28:26.283Z,1006.89
2018-12-19T10:29:34.948Z,1006.94
2018-12-19T10:30:43.633Z,1006.9
2018-12-19T10:31:52.310Z,1006.95
2018-12-19T10:33:00.995Z,1006.92
2018-12-19T10:34:09.659Z,1006.91
2018-12-19T10:35:18.343Z,1006.93
2018-12-19T10:36:27.011Z,1006.89
2018-12-19T10:37:35.696Z,1006.88
2018-12-19T10:38:44.361Z,1006.92
2018-12-19T10:39:53.211Z,1006.94
2018-12-19T10:41:02.063Z,1006.93
2018-12-19T10:42:10.762Z,1006.93
2018-12-19T10:43:19.952Z,1006.91
2018-12-19T10:44:29.240Z,1006.91
2018-12-19T10:45:37.919Z,1006.9
2018-12-19T10:46:46.591Z,1006.9
2018-12-19T10:47:55.301Z,1006.88
2018-12-19T10:49:03.959Z,1006.91
2018-12-19T10:50:12.631Z,1006.87
2018-12-19T10:51:21.294Z,1006.88
2018-12-19T10:52:29.972Z,1006.83
2018-12-19T10:53:38.630Z,1006.85
2018-12-19T10:54:47.318Z,1006.85
2018-12-19T10:55:56.040Z,1006.82
2018-12-19T10:57:04.978Z,1006.79
2018-12-19T10:58:13.682Z,1006.84
2018-12-19T10:59:22.368Z,1006.78
2018-12-19T11:00:31.090Z,1006.77
2018-12-19T11:01:40.028Z,1006.83
2018-12-19T11:02:48.700Z,1006.83
2018-12-19T11:03:57.489Z,1006.79
2018-12-19T11:05:06.442Z,1006.84
2018-12-19T11:06:15.109Z,1006.85
2018-12-19T11:07:23.806Z,1006.83
2018-12-19T11:08:32.470Z,1006.87
2018-12-19T11:09:41.147Z,1006.84
2018-12-19T11:10:49.873Z,1006.88
2018-12-19T11:11:58.557Z,1006.86
2018-12-19T11:13:07.222Z,1006.85
2018-12-19T11:14:16.429Z,1006.82
2018-12-19T11:15:25.120Z,1006.89
2018-12-19T11:16:33.801Z,1006.87
2018-12-19T11:17:42.466Z,1006.9
2018-12-19T11:18:51.393Z,1006.9
2018-12-19T11:20:00.071Z,1006.92
2018-12-19T11:21:08.745Z,1006.96
2018-12-19T11:22:17.418Z,1006.93
2018-12-19T11:23:26.088Z,1006.95
2018-12-19T11:24:34.761Z,1006.95
2018-12-19T11:25:43.435Z,1006.93
2018-12-19T11:26:52.103Z,1007
2018-12-19T11:28:00.780Z,1006.96
2018-12-19T11:29:09.436Z,1006.94
2018-12-19T11:30:18.166Z,1006.95
2018-12-19T11:31:26.843Z,1006.92
2018-12-19T11:32:36.690Z,1006.9
2018-12-19T11:33:45.359Z,1006.88
2018-12-19T11:34:54.046Z,1006.87
2018-12-19T11:36:02.728Z,1006.89
2018-12-19T11:37:12.517Z,1006.87
2018-12-19T11:38:21.200Z,1006.88
2018-12-19T11:39:29.874Z,1006.86
2018-12-19T11:40:38.839Z,1006.82
2018-12-19T11:41:47.514Z,1006.83
2018-12-19T11:42:56.220Z,1006.82
2018-12-19T11:44:05.345Z,1006.82
2018-12-19T11:45:14.097Z,1006.86
2018-12-19T11:46:22.775Z,1006.84
2018-12-19T11:47:31.705Z,1006.83
2018-12-19T11:48:40.361Z,1006.83
2018-12-19T11:49:49.183Z,1006.87
2018-12-19T11:50:58.064Z,1006.84
2018-12-19T11:52:07.514Z,1006.85
2018-12-19T11:53:17.468Z,1006.85
2018-12-19T11:54:26.141Z,1006.76
2018-12-19T11:55:34.813Z,1006.79
2018-12-19T11:56:43.521Z,1006.79
2018-12-19T11:57:52.187Z,1006.77
2018-12-19T11:59:00.865Z,1006.7
2018-12-19T12:00:09.534Z,1006.7
2018-12-19T12:01:18.268Z,1006.72
2018-12-19T12:02:26.966Z,1006.73
2018-12-19T12:03:35.893Z,1006.71
2018-12-19T12:04:44.573Z,1006.7
2018-12-19T12:05:53.237Z,1006.77
2018-12-19T12:07:01.925Z,1006.78
2018-12-19T12:08:10.853Z,1006.81
2018-12-19T12:09:19.526Z,1006.76
2018-12-19T12:10:28.186Z,1006.74
2018-12-19T12:11:37.362Z,1006.76
2018-12-19T12:12:52.077Z,1006.76
2018-12-19T12:14:01.477Z,1006.81
2018-12-19T12:15:12.067Z,1006.82
2018-12-19T12:16:21.084Z,1006.81
2018-12-19T12:17:30.371Z,1006.82
2018-12-19T12:18:39.043Z,1006.84
2018-12-19T12:19:47.761Z,1006.82
2018-12-19T12:20:56.718Z,1006.83
2018-12-19T12:22:05.401Z,1006.81
2018-12-19T12:23:14.085Z,1006.81
2018-12-19T12:24:23.011Z,1006.8
2018-12-19T12:25:31.931Z,1006.77
2018-12-19T12:26:40.603Z,1006.77
2018-12-19T12:27:49.297Z,1006.75
2018-12-19T12:28:57.989Z,1006.73
2018-12-19T12:30:06.661Z,1006.67
2018-12-19T12:31:15.626Z,1006.69
2018-12-19T12:32:24.562Z,1006.65
2018-12-19T12:33:33.495Z,1006.63
2018-12-19T12:34:42.176Z,1006.63
2018-12-19T12:35:50.870Z,1006.6
2018-12-19T12:36:59.784Z,1006.57
2018-12-19T12:38:08.476Z,1006.57
2018-12-19T12:39:17.164Z,1006.56
2018-12-19T12:40:25.839Z,1006.55
2018-12-19T12:41:34.518Z,1006.5
2018-12-19T12:42:43.190Z,1006.48
2018-12-19T12:43:51.882Z,1006.54
2018-12-19T12:45:00.554Z,1006.49
2018-12-19T12:46:09.482Z,1006.49
2018-12-19T12:47:18.171Z,1006.48
2018-12-19T12:48:26.855Z,1006.5
2018-12-19T12:49:35.531Z,1006.5
2018-12-19T12:50:44.460Z,1006.54
2018-12-19T12:51:53.130Z,1006.52
2018-12-19T12:53:02.053Z,1006.49
2018-12-19T12:54:10.726Z,1006.52
2018-12-19T12:55:19.403Z,1006.54
2018-12-19T12:56:28.081Z,1006.54
2018-12-19T12:57:36.752Z,1006.49
2018-12-19T12:58:45.422Z,1006.55
2018-12-19T12:59:54.118Z,1006.54
2018-12-19T13:01:02.817Z,1006.54
2018-12-19T13:02:11.483Z,1006.56
2018-12-19T13:03:20.668Z,1006.6
2018-12-19T13:04:29.346Z,1006.56
2018-12-19T13:05:38.018Z,1006.62
2018-12-19T13:06:46.690Z,1006.6
2018-12-19T13:07:55.625Z,1006.61
2018-12-19T13:09:04.300Z,1006.6
2018-12-19T13:10:13.231Z,1006.55
2018-12-19T13:11:21.904Z,1006.62
2018-12-19T13:12:30.577Z,1006.62
2018-12-19T13:13:39.249Z,1006.66
2018-12-19T13:14:47.919Z,1006.66
2018-12-19T13:15:56.599Z,1006.64
2018-12-19T13:17:05.269Z,1006.6
2018-12-19T13:18:14.699Z,1006.57
2018-12-19T13:19:23.537Z,1006.59
2018-12-19T13:20:32.214Z,1006.55
2018-12-19T13:21:40.952Z,1006.54
2018-12-19T13:22:49.630Z,1006.54
2018-12-19T13:23:58.296Z,1006.5
2018-12-19T13:25:06.981Z,1006.49
2018-12-19T13:26:15.649Z,1006.46
2018-12-19T13:27:24.324Z,1006.46
2018-12-19T13:28:32.984Z,1006.45
2018-12-19T13:29:41.660Z,1006.46
2018-12-19T13:30:50.338Z,1006.44
2018-12-19T13:31:59.266Z,1006.44
2018-12-19T13:33:07.937Z,1006.4
2018-12-19T13:34:16.604Z,1006.39
2018-12-19T13:35:25.297Z,1006.39
2018-12-19T13:36:33.966Z,1006.41
2018-12-19T13:37:42.645Z,1006.37
2018-12-19T13:38:51.562Z,1006.37
2018-12-19T13:40:00.243Z,1006.36
2018-12-19T13:41:08.921Z,1006.39
2018-12-19T13:42:17.603Z,1006.39
2018-12-19T13:43:26.271Z,1006.37
2018-12-19T13:44:34.983Z,1006.34
2018-12-19T13:45:43.652Z,1006.34
2018-12-19T13:46:54.579Z,1006.3
2018-12-19T13:48:03.280Z,1006.3
2018-12-19T13:49:13.175Z,1006.27
2018-12-19T13:50:21.851Z,1006.31
2018-12-19T13:51:31.611Z,1006.34
2018-12-19T13:52:40.296Z,1006.37
2018-12-19T13:53:48.963Z,1006.35
2018-12-19T13:54:57.647Z,1006.36
2018-12-19T13:56:06.320Z,1006.4